createdAt,value
2019-02-26T00:01:06.000Z,6.10
2019-02-26T00:03:35.284Z,6.00
2019-02-26T00:06:01.577Z,6.20
2019-02-26T00:08:31.198Z,6.10
2019-02-26T00:10:58.627Z,6.00
2019-02-26T00:13:25.075Z,6.00
2019-02-26T00:15:52.669Z,5.90
2019-02-26T00:18:21.416Z,5.90
2019-02-26T00:20:48.398Z,5.70
2019-02-26T00:23:15.859Z,5.60
2019-02-26T00:25:43.330Z,5.90
2019-02-26T00:28:11.107Z,5.80
2019-02-26T00:30:40.261Z,5.80
2019-02-26T00:33:05.766Z,5.90
2019-02-26T00:35:33.239Z,6.10
2019-02-26T00:38:01.068Z,6.50
2019-02-26T00:40:29.335Z,6.30
2019-02-26T00:43:00.147Z,6.20
2019-02-26T00:45:27.241Z,6.20
2019-02-26T00:47:52.543Z,6.00
2019-02-26T00:50:20.012Z,5.90
2019-02-26T00:52:48.246Z,5.40
2019-02-26T00:55:15.708Z,5.40
2019-02-26T00:57:43.228Z,5.20
2019-02-26T01:00:17.431Z,5.40
2019-02-26T01:02:44.901Z,5.40
2019-02-26T01:05:15.476Z,5.60
2019-02-26T01:07:42.114Z,5.60
2019-02-26T01:10:08.992Z,5.60
2019-02-26T01:12:37.567Z,5.70
2019-02-26T01:15:04.949Z,5.40
2019-02-26T01:17:33.360Z,5.60
2019-02-26T01:20:03.514Z,5.60
2019-02-26T01:22:28.701Z,5.60
2019-02-26T01:24:56.722Z,5.10
2019-02-26T01:27:23.633Z,5.10
2019-02-26T01:29:51.788Z,5.40
2019-02-26T01:32:20.480Z,5.20
2019-02-26T01:34:47.841Z,5.50
2019-02-26T01:37:14.333Z,6.00
2019-02-26T01:39:42.957Z,6.00
2019-02-26T01:42:10.682Z,6.00
2019-02-26T01:44:39.841Z,6.00
2019-02-26T01:47:05.011Z,6.00
2019-02-26T01:49:32.477Z,6.10
2019-02-26T01:51:59.938Z,6.00
2019-02-26T01:54:28.199Z,5.90
2019-02-26T01:56:55.070Z,5.90
2019-02-26T01:59:22.634Z,5.90
2019-02-26T02:01:51.981Z,5.90
2019-02-26T02:04:19.503Z,6.00
2019-02-26T02:06:46.009Z,5.90
2019-02-26T02:09:15.379Z,5.90
2019-02-26T02:11:41.765Z,6.00
2019-02-26T02:14:10.360Z,6.00
2019-02-26T02:16:36.689Z,5.90
2019-02-26T02:19:04.162Z,5.70
2019-02-26T02:21:33.435Z,5.90
2019-02-26T02:23:59.637Z,5.70
2019-02-26T02:26:27.865Z,5.50
2019-02-26T02:28:56.102Z,5.40
2019-02-26T02:31:25.091Z,5.40
2019-02-26T02:33:52.606Z,5.20
2019-02-26T02:36:22.927Z,5.20
2019-02-26T02:38:47.657Z,5.10
2019-02-26T02:41:15.240Z,5.10
2019-02-26T02:43:42.709Z,5.00
2019-02-26T02:46:10.920Z,5.00
2019-02-26T02:48:38.386Z,5.00
2019-02-26T02:51:07.999Z,5.00
2019-02-26T02:53:33.328Z,5.00
2019-02-26T02:56:00.812Z,5.30
2019-02-26T02:58:28.310Z,4.90
2019-02-26T03:00:57.975Z,4.90
2019-02-26T03:03:24.058Z,4.90
2019-02-26T03:05:51.905Z,4.90
2019-02-26T03:08:22.389Z,4.90
2019-02-26T03:10:47.719Z,4.90
2019-02-26T03:13:16.922Z,5.00
2019-02-26T03:15:42.765Z,4.90
2019-02-26T03:18:12.546Z,4.90
2019-02-26T03:20:40.290Z,4.80
2019-02-26T03:23:07.325Z,4.70
2019-02-26T03:25:32.673Z,4.40
2019-02-26T03:28:00.172Z,4.40
2019-02-26T03:30:34.006Z,4.30
2019-02-26T03:33:00.313Z,4.50
2019-02-26T03:35:23.569Z,4.60
2019-02-26T03:37:54.082Z,4.60
2019-02-26T03:40:17.672Z,4.70
2019-02-26T03:42:46.310Z,4.70
2019-02-26T03:45:14.136Z,4.70
2019-02-26T03:47:42.706Z,4.70
2019-02-26T03:50:10.185Z,4.60
2019-02-26T03:52:37.757Z,4.50
2019-02-26T03:55:06.816Z,4.40
2019-02-26T03:57:33.497Z,4.50
2019-02-26T04:00:05.624Z,4.50
2019-02-26T04:02:28.569Z,4.50
2019-02-26T04:04:57.265Z,4.50
2019-02-26T04:07:25.984Z,4.40
2019-02-26T04:09:53.167Z,4.30
2019-02-26T04:12:20.913Z,4.30
2019-02-26T04:14:46.953Z,4.20
2019-02-26T04:17:14.502Z,4.20
2019-02-26T04:19:44.512Z,4.30
2019-02-26T04:22:23.273Z,4.20
2019-02-26T04:24:50.035Z,4.30
2019-02-26T04:27:39.359Z,4.30
2019-02-26T04:30:13.663Z,4.20
2019-02-26T04:32:46.678Z,4.30
2019-02-26T04:35:13.407Z,4.30
2019-02-26T04:37:48.461Z,4.40
2019-02-26T04:40:18.771Z,4.20
2019-02-26T04:46:18.253Z,4.30
2019-02-26T04:48:45.730Z,4.40
2019-02-26T04:51:13.217Z,4.20
2019-02-26T04:53:41.436Z,4.50
2019-02-26T04:56:12.812Z,4.50
2019-02-26T04:58:37.237Z,4.30
2019-02-26T05:01:06.875Z,4.30
2019-02-26T05:03:32.974Z,4.50
2019-02-26T05:06:03.059Z,4.50
2019-02-26T05:08:29.367Z,4.40
2019-02-26T05:10:57.476Z,4.20
2019-02-26T05:13:25.215Z,4.20
2019-02-26T05:15:51.287Z,4.30
2019-02-26T05:18:20.489Z,4.30
2019-02-26T05:20:48.422Z,4.20
2019-02-26T05:23:13.780Z,4.20
2019-02-26T05:25:42.998Z,4.10
2019-02-26T05:28:10.066Z,4.20
2019-02-26T05:30:37.793Z,4.30
2019-02-26T05:33:05.582Z,4.00
2019-02-26T05:35:31.987Z,4.00
2019-02-26T05:38:01.588Z,4.10
2019-02-26T05:40:26.908Z,4.20
2019-02-26T05:42:56.072Z,4.30
2019-02-26T05:45:23.715Z,4.20
2019-02-26T05:47:51.255Z,4.00
2019-02-26T05:50:16.983Z,4.20
2019-02-26T05:52:44.513Z,4.10
2019-02-26T05:55:13.970Z,4.20
2019-02-26T05:57:40.308Z,4.00
2019-02-26T06:00:08.552Z,4.00
2019-02-26T06:02:38.821Z,4.20
2019-02-26T06:05:05.132Z,4.10
2019-02-26T06:07:35.536Z,4.00
2019-02-26T06:10:00.072Z,4.00
2019-02-26T06:12:27.530Z,4.10
2019-02-26T06:15:00.258Z,4.00
2019-02-26T06:17:23.228Z,4.20
2019-02-26T06:19:50.724Z,4.00
2019-02-26T06:22:20.745Z,4.30
2019-02-26T06:24:45.711Z,4.10
2019-02-26T06:27:15.799Z,4.00
2019-02-26T06:29:40.637Z,3.80
2019-02-26T06:32:09.613Z,3.90
2019-02-26T06:34:35.698Z,3.90
2019-02-26T06:37:20.498Z,3.90
2019-02-26T06:39:50.633Z,3.90
2019-02-26T06:42:15.449Z,4.10
2019-02-26T06:44:43.810Z,3.90
2019-02-26T06:47:10.388Z,3.90
2019-02-26T06:49:37.836Z,3.90
2019-02-26T06:52:06.079Z,3.90
2019-02-26T06:54:33.542Z,3.90
2019-02-26T06:57:01.788Z,3.90
2019-02-26T06:59:29.932Z,3.90
2019-02-26T07:01:57.518Z,3.90
2019-02-26T07:04:29.390Z,3.90
2019-02-26T07:06:55.190Z,3.90
2019-02-26T07:09:20.684Z,4.00
2019-02-26T07:11:48.147Z,4.00
2019-02-26T07:14:15.657Z,4.50
2019-02-26T07:16:43.123Z,4.30
2019-02-26T07:19:12.258Z,4.20
2019-02-26T07:21:40.606Z,4.20
2019-02-26T07:24:07.776Z,4.20
2019-02-26T07:26:36.683Z,4.60
2019-02-26T07:29:03.530Z,4.60
2019-02-26T07:31:31.027Z,4.60
2019-02-26T07:33:58.226Z,4.60
2019-02-26T07:36:26.401Z,4.70
2019-02-26T07:38:56.029Z,4.70
2019-02-26T07:41:20.790Z,4.80
2019-02-26T07:43:49.326Z,4.80
2019-02-26T07:46:17.620Z,5.00
2019-02-26T07:48:43.586Z,5.00
2019-02-26T07:51:11.054Z,5.10
2019-02-26T07:53:41.999Z,5.10
2019-02-26T07:56:08.663Z,5.20
2019-02-26T07:58:35.960Z,5.20
2019-02-26T08:01:01.930Z,5.30
2019-02-26T08:03:29.498Z,5.30
2019-02-26T08:05:56.888Z,5.30
2019-02-26T08:08:25.127Z,5.50
2019-02-26T08:10:53.075Z,5.40
2019-02-26T08:13:20.851Z,5.60
2019-02-26T08:15:48.325Z,5.60
2019-02-26T08:18:15.780Z,5.70
2019-02-26T08:20:43.242Z,5.80
2019-02-26T08:23:10.713Z,5.90
2019-02-26T08:25:38.940Z,6.10
2019-02-26T08:28:07.179Z,6.50
2019-02-26T08:30:34.630Z,6.50
2019-02-26T08:33:04.829Z,6.60
2019-02-26T08:35:29.775Z,6.80
2019-02-26T08:37:58.003Z,7.00
2019-02-26T08:40:25.579Z,7.00
2019-02-26T08:42:53.097Z,7.10
2019-02-26T08:45:23.581Z,7.60
2019-02-26T08:47:49.300Z,7.50
2019-02-26T08:50:16.848Z,7.90
2019-02-26T08:52:46.885Z,8.10
2019-02-26T08:55:12.998Z,8.30
2019-02-26T08:57:39.283Z,8.60
2019-02-26T09:00:08.657Z,8.60
2019-02-26T09:02:36.145Z,8.70
2019-02-26T09:05:06.781Z,8.90
2019-02-26T09:07:32.799Z,9.20
2019-02-26T09:10:00.395Z,9.10
2019-02-26T09:12:28.521Z,9.80
2019-02-26T09:14:56.025Z,9.80
2019-02-26T09:17:26.681Z,10.20
2019-02-26T09:19:52.725Z,10.50
2019-02-26T09:22:20.734Z,10.60
2019-02-26T09:24:46.883Z,11.00
2019-02-26T09:27:14.363Z,10.90
2019-02-26T09:29:48.238Z,11.30
2019-02-26T09:32:11.595Z,11.30
2019-02-26T09:34:39.701Z,11.30
2019-02-26T09:37:07.250Z,11.70
2019-02-26T09:39:36.000Z,11.60
2019-02-26T09:42:02.250Z,12.60
2019-02-26T09:44:29.302Z,12.60
2019-02-26T09:46:58.334Z,12.90
2019-02-26T09:49:26.206Z,12.80
2019-02-26T09:51:54.489Z,12.80
2019-02-26T09:54:22.531Z,12.70
2019-02-26T09:56:47.999Z,12.80
2019-02-26T09:59:15.473Z,13.00
2019-02-26T10:01:43.715Z,13.40
2019-02-26T10:04:11.161Z,13.30
2019-02-26T10:06:40.691Z,13.60
2019-02-26T10:09:10.316Z,13.70
2019-02-26T10:11:34.253Z,13.90
2019-02-26T10:14:02.915Z,13.80
2019-02-26T10:16:31.329Z,13.70
2019-02-26T10:18:56.884Z,14.00
2019-02-26T10:21:24.211Z,14.20
2019-02-26T10:23:53.698Z,14.60
2019-02-26T10:26:19.161Z,14.90
2019-02-26T10:28:51.443Z,15.00
2019-02-26T10:31:14.220Z,15.10
2019-02-26T10:33:43.979Z,14.80
2019-02-26T10:36:11.041Z,14.80
2019-02-26T10:38:38.510Z,14.80
2019-02-26T10:41:05.838Z,14.80
2019-02-26T10:43:33.290Z,15.00
2019-02-26T10:46:00.809Z,14.90
2019-02-26T10:48:28.316Z,14.80
2019-02-26T10:50:56.564Z,14.90
2019-02-26T10:53:24.800Z,15.00
2019-02-26T10:55:52.275Z,15.00
2019-02-26T10:58:20.519Z,15.10
2019-02-26T11:00:50.109Z,15.10
2019-02-26T11:03:17.298Z,14.90
2019-02-26T11:05:45.224Z,14.90
2019-02-26T11:08:12.091Z,15.40
2019-02-26T11:10:43.985Z,15.80
2019-02-26T11:13:08.078Z,15.80
2019-02-26T11:15:35.965Z,16.00
2019-02-26T11:18:03.796Z,16.10
2019-02-26T11:20:34.093Z,16.20
2019-02-26T11:22:58.804Z,16.20
2019-02-26T11:25:27.564Z,16.40
2019-02-26T11:27:54.515Z,16.40
2019-02-26T11:30:23.820Z,16.40
2019-02-26T11:32:49.561Z,16.40
2019-02-26T11:35:20.407Z,16.50
2019-02-26T11:37:47.159Z,16.40
2019-02-26T11:40:14.294Z,16.50
2019-02-26T11:42:42.314Z,16.50
2019-02-26T11:45:12.625Z,16.70
2019-02-26T11:47:40.922Z,16.70
2019-02-26T11:50:07.034Z,16.70
2019-02-26T11:52:36.429Z,16.70
2019-02-26T11:55:05.496Z,16.70
2019-02-26T11:57:32.705Z,16.80
2019-02-26T11:59:59.482Z,16.80
2019-02-26T12:02:31.358Z,16.80
2019-02-26T12:04:54.878Z,16.90
2019-02-26T12:07:22.292Z,17.00
2019-02-26T12:09:48.658Z,16.90
2019-02-26T12:12:16.131Z,16.90
2019-02-26T12:14:46.681Z,17.00
2019-02-26T12:17:12.014Z,17.00
2019-02-26T12:19:39.506Z,17.10
2019-02-26T12:22:07.104Z,17.10
2019-02-26T12:24:36.144Z,17.20
2019-02-26T12:27:04.343Z,17.20
2019-02-26T12:29:31.917Z,17.20
2019-02-26T12:32:01.911Z,17.10
2019-02-26T12:34:28.574Z,17.10
2019-02-26T12:36:57.224Z,17.20
2019-02-26T12:39:25.079Z,17.20
2019-02-26T12:41:51.879Z,17.30
2019-02-26T12:44:19.339Z,17.30
2019-02-26T12:46:47.814Z,17.20
2019-02-26T12:49:16.043Z,17.20
2019-02-26T12:51:41.930Z,17.20
2019-02-26T12:54:12.634Z,17.20
2019-02-26T12:56:37.939Z,16.90
2019-02-26T12:59:06.990Z,16.80
2019-02-26T13:01:33.348Z,16.80
2019-02-26T13:04:00.476Z,16.70
2019-02-26T13:06:28.039Z,16.60
2019-02-26T13:08:55.505Z,16.60
2019-02-26T13:11:24.914Z,16.50
2019-02-26T13:13:53.415Z,16.70
2019-02-26T13:16:18.704Z,16.60
2019-02-26T13:18:47.953Z,16.70
2019-02-26T13:21:16.918Z,16.60
2019-02-26T13:23:41.366Z,16.40
2019-02-26T13:26:10.864Z,16.30
2019-02-26T13:28:38.119Z,16.40
2019-02-26T13:31:05.662Z,16.20
2019-02-26T13:33:36.877Z,16.20
2019-02-26T13:36:01.869Z,16.20
2019-02-26T13:38:34.001Z,16.00
2019-02-26T13:41:01.743Z,16.00
2019-02-26T13:43:23.667Z,16.10
2019-02-26T13:45:51.202Z,16.10
2019-02-26T13:48:18.665Z,16.10
2019-02-26T13:50:46.125Z,15.90
2019-02-26T13:53:13.593Z,16.00
2019-02-26T13:55:41.051Z,16.10
2019-02-26T13:58:11.832Z,16.20
2019-02-26T14:00:36.168Z,16.30
2019-02-26T14:03:04.457Z,16.10
2019-02-26T14:05:37.971Z,16.10
2019-02-26T14:07:59.399Z,16.20
2019-02-26T14:10:26.872Z,16.10
2019-02-26T14:12:54.424Z,16.20
2019-02-26T14:15:25.356Z,16.20
2019-02-26T14:17:52.828Z,16.30
2019-02-26T14:20:20.449Z,16.20
2019-02-26T14:22:47.952Z,16.20
2019-02-26T14:25:15.521Z,16.20
2019-02-26T14:27:42.991Z,16.20
2019-02-26T14:30:16.675Z,16.20
2019-02-26T14:32:44.140Z,16.20
2019-02-26T14:35:11.723Z,16.20
2019-02-26T14:37:39.173Z,16.10
2019-02-26T14:40:10.134Z,15.90
2019-02-26T14:42:37.610Z,15.90
2019-02-26T14:45:05.835Z,16.20
2019-02-26T14:47:33.306Z,16.10
2019-02-26T14:50:00.801Z,16.20
2019-02-26T14:52:28.273Z,16.20
2019-02-26T14:54:55.744Z,16.10
2019-02-26T14:57:23.977Z,15.90
2019-02-26T14:59:51.454Z,15.90
2019-02-26T15:02:19.732Z,15.80
2019-02-26T15:04:47.224Z,15.80
2019-02-26T15:07:14.706Z,15.70
2019-02-26T15:09:42.200Z,15.70
2019-02-26T15:12:09.708Z,15.70
2019-02-26T15:14:37.261Z,15.60
2019-02-26T15:17:04.725Z,15.50
2019-02-26T15:19:32.275Z,15.60
2019-02-26T15:21:59.842Z,15.50
2019-02-26T15:24:27.520Z,15.40
2019-02-26T15:26:54.982Z,15.50
2019-02-26T15:29:23.245Z,15.30
2019-02-26T15:31:50.823Z,15.30
2019-02-26T15:34:19.086Z,15.20
2019-02-26T15:36:46.550Z,15.10
2019-02-26T15:39:14.123Z,15.30
2019-02-26T15:41:41.593Z,15.30
2019-02-26T15:44:09.057Z,15.40
2019-02-26T15:46:36.596Z,15.30
2019-02-26T15:49:07.342Z,15.20
2019-02-26T15:51:32.377Z,15.00
2019-02-26T15:54:00.605Z,15.00
2019-02-26T15:56:29.828Z,15.00
2019-02-26T15:58:55.645Z,15.00
2019-02-26T16:01:23.103Z,15.10
2019-02-26T16:03:50.555Z,14.80
2019-02-26T16:06:18.898Z,14.70
2019-02-26T16:08:47.125Z,14.80
2019-02-26T16:11:14.602Z,14.80
2019-02-26T16:13:42.081Z,14.90
2019-02-26T16:16:09.557Z,14.70
2019-02-26T16:18:37.820Z,14.40
2019-02-26T16:21:05.288Z,14.40
2019-02-26T16:23:32.823Z,14.40
2019-02-26T16:26:00.734Z,14.30
2019-02-26T16:28:27.957Z,14.10
2019-02-26T16:30:55.953Z,14.10
2019-02-26T16:33:22.945Z,14.00
2019-02-26T16:35:52.276Z,14.00
2019-02-26T16:38:17.916Z,14.00
2019-02-26T16:40:46.156Z,13.90
2019-02-26T16:43:14.805Z,13.90
2019-02-26T16:45:41.101Z,13.80
2019-02-26T16:48:08.582Z,13.70
2019-02-26T16:50:36.032Z,13.60
2019-02-26T16:53:04.505Z,13.40
2019-02-26T16:55:31.981Z,13.40
2019-02-26T16:58:02.241Z,13.30
2019-02-26T17:00:28.396Z,13.30
2019-02-26T17:02:59.696Z,13.20
2019-02-26T17:05:24.094Z,13.10
2019-02-26T17:07:51.667Z,13.10
2019-02-26T17:10:19.286Z,13.00
2019-02-26T17:12:49.282Z,13.00
2019-02-26T17:15:18.437Z,12.90
2019-02-26T17:17:46.025Z,12.90
2019-02-26T17:20:13.486Z,12.90
2019-02-26T17:22:41.746Z,12.70
2019-02-26T17:25:09.325Z,12.70
2019-02-26T17:27:38.948Z,12.70
2019-02-26T17:30:05.768Z,12.70
2019-02-26T17:32:35.714Z,12.50
2019-02-26T17:35:00.837Z,12.50
2019-02-26T17:37:29.068Z,12.40
2019-02-26T17:39:56.533Z,12.40
2019-02-26T17:42:23.996Z,12.40
2019-02-26T17:44:51.546Z,12.40
2019-02-26T17:47:19.029Z,12.20
2019-02-26T17:49:46.611Z,12.10
2019-02-26T17:52:14.119Z,12.10
2019-02-26T17:54:41.583Z,12.00
2019-02-26T17:57:09.150Z,12.00
2019-02-26T17:59:36.616Z,12.00
2019-02-26T18:02:04.120Z,11.90
2019-02-26T18:04:31.686Z,11.90
2019-02-26T18:07:00.392Z,11.80
2019-02-26T18:09:27.410Z,11.80
2019-02-26T18:11:54.884Z,11.80
2019-02-26T18:14:22.359Z,11.70
2019-02-26T18:16:49.907Z,11.70
2019-02-26T18:19:17.472Z,11.60
2019-02-26T18:21:45.037Z,11.50
2019-02-26T18:24:12.498Z,11.60
2019-02-26T18:26:39.973Z,11.60
2019-02-26T18:29:07.492Z,11.30
2019-02-26T18:31:34.975Z,11.20
2019-02-26T18:34:02.552Z,11.20
2019-02-26T18:36:30.016Z,11.00
2019-02-26T18:38:57.485Z,11.00
2019-02-26T18:41:26.662Z,11.00
2019-02-26T18:43:54.153Z,11.00
2019-02-26T18:46:21.620Z,11.00
2019-02-26T18:48:49.280Z,11.00
2019-02-26T18:51:17.339Z,11.00
2019-02-26T18:53:47.084Z,11.00
2019-02-26T18:56:13.182Z,11.00
2019-02-26T18:58:40.647Z,11.00
2019-02-26T19:01:08.112Z,11.00
2019-02-26T19:03:35.575Z,11.00
2019-02-26T19:06:04.561Z,10.90
2019-02-26T19:08:32.137Z,10.80
2019-02-26T19:10:59.712Z,10.60
2019-02-26T19:13:28.081Z,10.70
2019-02-26T19:15:57.207Z,10.50
2019-02-26T19:18:25.452Z,10.40
2019-02-26T19:20:52.924Z,10.40
2019-02-26T19:23:20.401Z,10.40
2019-02-26T19:25:47.959Z,10.20
2019-02-26T19:28:15.517Z,10.10
2019-02-26T19:30:43.001Z,10.10
2019-02-26T19:33:11.245Z,10.00
2019-02-26T19:35:40.346Z,10.00
2019-02-26T19:38:07.010Z,9.90
2019-02-26T19:40:38.727Z,9.90
2019-02-26T19:43:03.877Z,10.00
2019-02-26T19:45:32.907Z,9.80
2019-02-26T19:47:59.593Z,9.80
2019-02-26T19:50:27.077Z,9.70
2019-02-26T19:52:57.219Z,9.80
2019-02-26T19:55:23.535Z,9.80
2019-02-26T19:57:52.777Z,9.80
2019-02-26T20:00:20.559Z,9.80
2019-02-26T20:02:47.762Z,9.70
2019-02-26T20:05:15.321Z,9.80
2019-02-26T20:07:42.785Z,10.00
2019-02-26T20:10:15.139Z,9.70
2019-02-26T20:12:43.049Z,9.50
2019-02-26T20:15:10.507Z,9.50
2019-02-26T20:17:38.055Z,9.30
2019-02-26T20:20:06.357Z,9.20
2019-02-26T20:22:34.581Z,9.20
2019-02-26T20:25:02.049Z,9.10
2019-02-26T20:27:29.513Z,9.30
2019-02-26T20:29:56.972Z,9.10
2019-02-26T20:32:26.393Z,9.00
2019-02-26T20:34:52.031Z,9.10
2019-02-26T20:37:21.930Z,8.80
2019-02-26T20:39:46.993Z,8.80
2019-02-26T20:42:15.225Z,8.90
2019-02-26T20:44:45.214Z,8.90
2019-02-26T20:47:10.168Z,8.80
2019-02-26T20:49:37.822Z,8.70
2019-02-26T20:52:05.290Z,8.70
2019-02-26T20:54:32.908Z,8.90
2019-02-26T20:57:03.738Z,9.10
2019-02-26T20:59:29.369Z,9.20
2019-02-26T21:01:56.845Z,9.20
2019-02-26T21:04:24.390Z,9.20
2019-02-26T21:06:51.845Z,9.10
2019-02-26T21:09:19.334Z,9.00
2019-02-26T21:11:46.823Z,8.80
2019-02-26T21:14:14.290Z,8.60
2019-02-26T21:16:41.760Z,8.60
2019-02-26T21:19:10.001Z,8.80
2019-02-26T21:21:37.477Z,8.80
2019-02-26T21:24:04.932Z,8.70
2019-02-26T21:26:32.429Z,8.60
2019-02-26T21:28:59.923Z,8.40
2019-02-26T21:31:27.391Z,8.50
2019-02-26T21:33:54.879Z,8.40
2019-02-26T21:36:22.354Z,8.30
2019-02-26T21:38:49.821Z,8.50
2019-02-26T21:41:17.289Z,8.30
2019-02-26T21:43:44.750Z,8.40
2019-02-26T21:46:13.140Z,8.20
2019-02-26T21:48:40.705Z,8.30
2019-02-26T21:51:08.182Z,8.10
2019-02-26T21:53:35.646Z,8.30
2019-02-26T21:56:04.516Z,8.10
2019-02-26T21:58:31.977Z,8.10
2019-02-26T22:00:59.550Z,8.10
2019-02-26T22:03:27.028Z,8.00
2019-02-26T22:05:54.617Z,8.10
2019-02-26T22:08:24.532Z,8.10
2019-02-26T22:10:50.501Z,7.90
2019-02-26T22:13:19.845Z,7.90
2019-02-26T22:15:47.304Z,7.80
2019-02-26T22:18:16.569Z,7.60
2019-02-26T22:20:44.044Z,7.50
2019-02-26T22:23:11.509Z,7.70
2019-02-26T22:25:39.841Z,7.90
2019-02-26T22:28:08.804Z,7.90
2019-02-26T22:30:34.890Z,8.00
2019-02-26T22:33:03.058Z,8.10
2019-02-26T22:35:30.571Z,8.00
2019-02-26T22:37:58.816Z,8.00
2019-02-26T22:40:28.917Z,8.00
2019-02-26T22:42:53.955Z,8.00
2019-02-26T22:45:22.282Z,8.10
2019-02-26T22:47:50.406Z,7.90
2019-02-26T22:50:17.888Z,7.80
2019-02-26T22:52:46.318Z,7.80
2019-02-26T22:55:16.045Z,7.70
2019-02-26T22:57:41.876Z,7.60
2019-02-26T23:00:35.800Z,7.40
2019-02-26T23:03:04.335Z,7.60
2019-02-26T23:05:31.832Z,7.60
2019-02-26T23:07:59.310Z,7.40
2019-02-26T23:10:27.551Z,7.60
2019-02-26T23:12:55.022Z,7.60
2019-02-26T23:15:22.592Z,7.50
2019-02-26T23:17:50.678Z,7.40
2019-02-26T23:20:19.772Z,7.30
2019-02-26T23:22:48.002Z,7.40
2019-02-26T23:25:15.519Z,7.40
2019-02-26T23:27:42.988Z,7.10
2019-02-26T23:30:11.524Z,7.10
2019-02-26T23:32:39.513Z,7.10
2019-02-26T23:35:11.323Z,7.00
2019-02-26T23:37:39.585Z,7.00
2019-02-26T23:40:07.105Z,7.00
2019-02-26T23:42:38.787Z,6.90
2019-02-26T23:45:02.175Z,6.90
2019-02-26T23:47:29.634Z,6.80
2019-02-26T23:49:57.903Z,6.80
2019-02-26T23:52:27.748Z,6.80
2019-02-26T23:54:53.634Z,6.80
2019-02-26T23:57:22.762Z,6.80
2019-02-26T23:59:48.608Z,6.90
